createdAt,value
2019-05-16T00:00:00.470Z,102102.47
2019-05-16T00:00:29.034Z,102108.77
2019-05-16T00:00:53.076Z,102110.12
2019-05-16T00:01:19.305Z,102106.53
2019-05-16T00:01:44.818Z,102105.66
2019-05-16T00:02:10.014Z,102106.13
2019-05-16T00:03:08.028Z,102109.94
2019-05-16T00:03:33.568Z,102107.19
2019-05-16T00:03:58.727Z,102105.84
2019-05-16T00:04:23.934Z,102108.55
2019-05-16T00:04:48.571Z,102106.31
2019-05-16T00:05:13.756Z,102110.85
2019-05-16T00:05:50.883Z,102109.50
2019-05-16T00:06:05.860Z,102110.85
2019-05-16T00:06:30.759Z,102105.54
2019-05-16T00:06:55.976Z,102102.83
2019-05-16T00:07:21.176Z,102108.73
2019-05-16T00:07:48.980Z,102105.61
2019-05-16T00:08:13.215Z,102109.67
2019-05-16T00:08:38.881Z,102106.49
2019-05-16T00:09:05.246Z,102105.61
2019-05-16T00:09:30.445Z,102107.44
2019-05-16T00:09:55.067Z,102106.16
2019-05-16T00:10:20.232Z,102103.08
2019-05-16T00:10:48.581Z,102106.16
2019-05-16T00:11:13.065Z,102105.39
2019-05-16T00:11:38.397Z,102105.79
2019-05-16T00:12:04.261Z,102104.51
2019-05-16T00:12:29.436Z,102114.87
2019-05-16T00:12:54.615Z,102109.45
2019-05-16T00:13:19.322Z,102103.63
2019-05-16T00:13:44.502Z,102104.98
2019-05-16T00:14:09.671Z,102103.23
2019-05-16T00:14:34.858Z,102107.29
2019-05-16T00:15:00.090Z,102103.34
2019-05-16T00:15:24.774Z,102104.69
2019-05-16T00:15:50.042Z,102101.58
2019-05-16T00:16:15.261Z,102102.45
2019-05-16T00:16:40.467Z,102102.93
2019-05-16T00:17:08.195Z,102102.05
2019-05-16T00:17:32.070Z,102095.28
2019-05-16T00:17:58.287Z,102096.23
2019-05-16T00:18:23.891Z,102090.81
2019-05-16T00:18:49.118Z,102092.17
2019-05-16T00:19:14.368Z,102098.94
2019-05-16T00:19:39.518Z,102096.34
2019-05-16T00:20:09.215Z,102093.63
2019-05-16T00:20:34.777Z,102096.81
2019-05-16T00:20:59.406Z,102098.17
2019-05-16T00:21:24.653Z,102095.94
2019-05-16T00:21:49.840Z,102094.66
2019-05-16T00:22:15.066Z,102094.66
2019-05-16T00:22:40.254Z,102097.77
2019-05-16T00:23:04.868Z,102096.52
2019-05-16T00:23:30.056Z,102094.66
2019-05-16T00:23:55.302Z,102090.69
2019-05-16T00:24:20.519Z,102100.58
2019-05-16T00:24:45.710Z,102093.88
2019-05-16T00:25:10.329Z,102099.77
2019-05-16T00:25:35.500Z,102094.83
2019-05-16T00:26:00.928Z,102099.37
2019-05-16T00:26:28.191Z,102093.47
2019-05-16T00:26:52.560Z,102093.95
2019-05-16T00:27:18.590Z,102099.37
2019-05-16T00:27:43.980Z,102100.35
2019-05-16T00:28:09.154Z,102095.41
2019-05-16T00:28:33.804Z,102097.23
2019-05-16T00:28:59.065Z,102095.89
2019-05-16T00:29:24.268Z,102097.72
2019-05-16T00:29:49.462Z,102099.14
2019-05-16T00:30:14.484Z,102095.08
2019-05-16T00:30:39.662Z,102097.78
2019-05-16T00:31:04.831Z,102102.36
2019-05-16T00:31:30.037Z,102095.19
2019-05-16T00:31:55.236Z,102098.77
2019-05-16T00:32:19.876Z,102099.24
2019-05-16T00:32:45.074Z,102094.30
2019-05-16T00:33:10.278Z,102097.48
2019-05-16T00:33:35.484Z,102090.72
2019-05-16T00:34:00.652Z,102088.95
2019-05-16T00:34:25.286Z,102096.12
2019-05-16T00:34:50.459Z,102094.78
2019-05-16T00:35:18.047Z,102096.12
2019-05-16T00:35:42.570Z,102093.02
2019-05-16T00:36:09.159Z,102089.94
2019-05-16T00:36:34.158Z,102091.67
2019-05-16T00:36:59.094Z,102091.77
2019-05-16T00:37:24.331Z,102091.30
2019-05-16T00:37:48.961Z,102092.66
2019-05-16T00:38:14.980Z,102085.48
2019-05-16T00:38:40.170Z,102089.54
2019-05-16T00:39:08.225Z,102092.66
2019-05-16T00:39:32.610Z,102088.63
2019-05-16T00:39:58.807Z,102092.69
2019-05-16T00:40:24.292Z,102090.45
2019-05-16T00:40:49.443Z,102087.75
2019-05-16T00:41:14.430Z,102083.76
2019-05-16T00:41:39.908Z,102090.93
2019-05-16T00:42:05.090Z,102089.17
2019-05-16T00:42:30.341Z,102087.34
2019-05-16T00:42:55.501Z,102084.27
2019-05-16T00:43:20.174Z,102090.05
2019-05-16T00:43:45.443Z,102079.33
2019-05-16T00:44:10.640Z,102081.16
2019-05-16T00:44:35.817Z,102084.74
2019-05-16T00:45:01.210Z,102085.69
2019-05-16T00:45:29.139Z,102086.16
2019-05-16T00:45:53.832Z,102085.69
2019-05-16T00:46:20.104Z,102091.98
2019-05-16T00:46:45.009Z,102086.16
2019-05-16T00:47:10.199Z,102088.94
2019-05-16T00:47:35.389Z,102087.12
2019-05-16T00:48:00.587Z,102083.53
2019-05-16T00:48:25.206Z,102086.34
2019-05-16T00:48:50.383Z,102087.69
2019-05-16T00:49:15.570Z,102088.17
2019-05-16T00:49:40.766Z,102086.34
2019-05-16T00:50:05.943Z,102090.80
2019-05-16T00:50:30.543Z,102087.29
2019-05-16T00:50:55.812Z,102085.94
2019-05-16T00:51:21.006Z,102084.98
2019-05-16T00:51:48.063Z,102085.94
2019-05-16T00:52:12.491Z,102084.18
2019-05-16T00:52:39.449Z,102089.59
2019-05-16T00:53:04.826Z,102090.00
2019-05-16T00:53:30.001Z,102086.89
2019-05-16T00:53:54.650Z,102087.36
2019-05-16T00:54:19.918Z,102087.87
2019-05-16T00:54:45.093Z,102089.23
2019-05-16T00:55:10.311Z,102085.64
2019-05-16T00:55:35.529Z,102080.70
2019-05-16T00:56:00.326Z,102080.70
2019-05-16T00:56:26.063Z,102087.06
2019-05-16T00:56:51.259Z,102085.23
2019-05-16T00:57:18.789Z,102079.41
2019-05-16T00:57:43.245Z,102084.36
2019-05-16T00:58:08.931Z,102080.77
2019-05-16T00:58:34.272Z,102082.59
2019-05-16T00:58:59.853Z,102074.47
2019-05-16T00:59:24.459Z,102075.45
2019-05-16T00:59:49.948Z,102082.59
2019-05-16T01:00:18.051Z,102079.05
2019-05-16T01:00:50.506Z,102072.75
2019-05-16T01:01:15.389Z,102078.16
2019-05-16T01:01:40.597Z,102076.41
2019-05-16T01:02:05.761Z,102075.05
2019-05-16T01:02:30.991Z,102079.11
2019-05-16T01:02:57.831Z,102079.11
2019-05-16T01:03:22.612Z,102071.06
2019-05-16T01:03:48.328Z,102076.48
2019-05-16T01:04:15.141Z,102076.00
2019-05-16T01:04:40.343Z,102069.71
2019-05-16T01:05:08.271Z,102076.48
2019-05-16T01:05:32.876Z,102071.54
2019-05-16T01:05:58.313Z,102073.87
2019-05-16T01:06:24.010Z,102074.75
2019-05-16T01:06:48.658Z,102068.46
2019-05-16T01:07:13.885Z,102070.69
2019-05-16T01:07:39.403Z,102065.34
2019-05-16T01:08:04.801Z,102068.05
2019-05-16T01:08:30.405Z,102065.83
2019-05-16T01:08:57.907Z,102071.23
2019-05-16T01:09:22.657Z,102067.17
2019-05-16T01:09:48.830Z,102068.13
2019-05-16T01:10:14.572Z,102067.66
2019-05-16T01:10:39.921Z,102064.95
2019-05-16T01:11:05.178Z,102070.36
2019-05-16T01:11:30.394Z,102065.89
2019-05-16T01:11:57.825Z,102066.88
2019-05-16T01:12:21.927Z,102065.52
2019-05-16T01:12:48.064Z,102065.89
2019-05-16T01:13:13.431Z,102063.30
2019-05-16T01:13:38.607Z,102063.77
2019-05-16T01:14:04.459Z,102063.77
2019-05-16T01:14:29.640Z,102056.59
2019-05-16T01:14:54.835Z,102064.64
2019-05-16T01:15:20.994Z,102065.13
2019-05-16T01:15:48.402Z,102057.07
2019-05-16T01:16:13.129Z,102065.19
2019-05-16T01:16:38.402Z,102059.30
2019-05-16T01:17:03.551Z,102062.01
2019-05-16T01:17:28.466Z,102056.19
2019-05-16T01:17:54.309Z,102061.61
2019-05-16T01:18:19.517Z,102058.53
2019-05-16T01:18:44.880Z,102058.90
2019-05-16T01:19:09.512Z,102058.53
2019-05-16T01:19:34.705Z,102051.77
2019-05-16T01:19:59.920Z,102054.06
2019-05-16T01:20:25.110Z,102058.53
2019-05-16T01:20:50.381Z,102059.00
2019-05-16T01:21:15.175Z,102055.82
2019-05-16T01:21:40.363Z,102054.47
2019-05-16T01:22:05.531Z,102051.77
2019-05-16T01:22:30.731Z,102051.77
2019-05-16T01:22:58.158Z,102058.90
2019-05-16T01:23:22.665Z,102056.77
2019-05-16T01:23:48.314Z,102058.53
2019-05-16T01:24:13.678Z,102051.36
2019-05-16T01:24:41.504Z,102054.84
2019-05-16T01:25:06.195Z,102056.77
2019-05-16T01:25:31.390Z,102056.77
2019-05-16T01:25:58.919Z,102052.30
2019-05-16T01:26:24.207Z,102054.53
2019-05-16T01:26:48.833Z,102049.12
2019-05-16T01:27:15.951Z,102058.13
2019-05-16T01:27:47.735Z,102056.30
2019-05-16T01:28:13.009Z,102054.53
2019-05-16T01:28:37.855Z,102053.66
2019-05-16T01:29:03.153Z,102054.53
2019-05-16T01:29:28.363Z,102052.70
2019-05-16T01:29:53.693Z,102055.02
2019-05-16T01:30:18.814Z,102053.66
2019-05-16T01:30:44.247Z,102055.41
2019-05-16T01:31:09.517Z,102053.66
2019-05-16T01:31:34.749Z,102053.66
2019-05-16T01:31:59.350Z,102054.61
2019-05-16T01:32:24.792Z,102053.66
2019-05-16T01:32:49.985Z,102050.55
2019-05-16T01:33:15.181Z,102055.02
2019-05-16T01:33:40.427Z,102057.31
2019-05-16T01:34:07.649Z,102054.61
2019-05-16T01:34:32.239Z,102055.96
2019-05-16T01:34:58.898Z,102055.48
2019-05-16T01:35:24.320Z,102054.61
2019-05-16T01:35:49.001Z,102052.41
2019-05-16T01:36:15.358Z,102051.53
2019-05-16T01:36:40.948Z,102051.53
2019-05-16T01:37:08.315Z,102052.88
2019-05-16T01:37:32.756Z,102051.53
2019-05-16T01:37:58.158Z,102051.53
2019-05-16T01:38:23.397Z,102049.77
2019-05-16T01:38:48.664Z,102054.23
2019-05-16T01:39:13.269Z,102055.19
2019-05-16T01:39:38.441Z,102052.08
2019-05-16T01:40:03.635Z,102053.83
2019-05-16T01:40:28.812Z,102052.00
2019-05-16T01:40:54.091Z,102049.77
2019-05-16T01:41:18.837Z,102056.54
2019-05-16T01:41:44.015Z,102048.89
2019-05-16T01:42:09.194Z,102049.77
2019-05-16T01:42:34.374Z,102048.02
2019-05-16T01:42:59.541Z,102045.78
2019-05-16T01:43:24.159Z,102044.84
2019-05-16T01:43:49.388Z,102045.31
2019-05-16T01:44:15.191Z,102042.60
2019-05-16T01:44:40.383Z,102045.31
2019-05-16T01:45:08.226Z,102040.78
2019-05-16T01:45:33.224Z,102039.48
2019-05-16T01:45:58.639Z,102036.78
2019-05-16T01:46:23.864Z,102043.95
2019-05-16T01:46:48.573Z,102036.78
2019-05-16T01:47:13.751Z,102042.20
2019-05-16T01:47:39.513Z,102033.30
2019-05-16T01:48:04.809Z,102032.83
2019-05-16T01:48:30.196Z,102043.55
2019-05-16T01:48:57.797Z,102030.59
2019-05-16T01:49:23.246Z,102037.77
2019-05-16T01:49:48.941Z,102035.13
2019-05-16T01:50:17.868Z,102035.61
2019-05-16T01:50:42.486Z,102034.73
2019-05-16T01:51:07.875Z,102032.53
2019-05-16T01:51:33.407Z,102034.36
2019-05-16T01:51:58.039Z,102035.23
2019-05-16T01:52:23.216Z,102034.83
2019-05-16T01:52:48.881Z,102032.60
2019-05-16T01:53:17.663Z,102031.72
2019-05-16T01:53:41.573Z,102029.02
2019-05-16T01:54:08.654Z,102029.02
2019-05-16T01:54:33.736Z,102033.07
2019-05-16T01:54:59.269Z,102025.43
2019-05-16T01:55:23.893Z,102031.72
2019-05-16T01:55:49.151Z,102035.78
2019-05-16T01:56:15.279Z,102031.31
2019-05-16T01:56:40.479Z,102029.09
2019-05-16T01:57:05.159Z,102034.02
2019-05-16T01:57:30.360Z,102030.95
2019-05-16T01:57:55.567Z,102028.23
2019-05-16T01:58:20.793Z,102032.30
2019-05-16T01:58:45.952Z,102027.36
2019-05-16T01:59:10.639Z,102028.72
2019-05-16T01:59:37.922Z,102026.01
2019-05-16T02:00:02.708Z,102026.89
2019-05-16T02:00:35.709Z,102021.07
2019-05-16T02:01:06.037Z,102025.12
2019-05-16T02:01:21.145Z,102026.48
2019-05-16T02:01:48.265Z,102023.78
2019-05-16T02:02:14.395Z,102022.90
2019-05-16T02:02:40.872Z,102022.02
2019-05-16T02:03:08.099Z,102021.07
2019-05-16T02:03:32.978Z,102021.55
2019-05-16T02:03:58.717Z,102022.02
2019-05-16T02:04:24.258Z,102022.90
2019-05-16T02:04:49.428Z,102016.67
2019-05-16T02:05:14.598Z,102019.79
2019-05-16T02:05:39.851Z,102019.79
2019-05-16T02:06:05.178Z,102018.91
2019-05-16T02:06:29.831Z,102016.67
2019-05-16T02:06:55.243Z,102017.55
2019-05-16T02:07:20.454Z,102018.03
2019-05-16T02:07:47.871Z,102022.97
2019-05-16T02:08:11.970Z,102017.55
2019-05-16T02:08:38.021Z,102018.54
2019-05-16T02:09:04.348Z,102016.67
2019-05-16T02:09:30.298Z,102012.25
2019-05-16T02:09:54.882Z,102015.83
2019-05-16T02:10:20.083Z,102012.62
2019-05-16T02:10:47.670Z,102011.37
2019-05-16T02:11:12.351Z,102011.37
2019-05-16T02:11:38.821Z,102010.89
2019-05-16T02:12:04.111Z,102014.95
2019-05-16T02:12:29.292Z,102016.67
2019-05-16T02:12:54.466Z,102014.95
2019-05-16T02:13:19.662Z,102013.20
2019-05-16T02:13:44.276Z,102016.78
2019-05-16T02:14:09.620Z,102015.42
2019-05-16T02:14:34.883Z,102013.20
2019-05-16T02:15:00.061Z,102016.85
2019-05-16T02:15:25.244Z,102010.56
2019-05-16T02:15:49.896Z,102017.73
2019-05-16T02:16:15.187Z,102012.79
2019-05-16T02:16:40.334Z,102010.56
2019-05-16T02:17:05.504Z,102010.56
2019-05-16T02:17:30.676Z,102010.97
2019-05-16T02:17:55.299Z,102010.19
2019-05-16T02:18:20.482Z,102007.86
2019-05-16T02:18:45.722Z,102011.03
2019-05-16T02:19:10.937Z,102010.19
2019-05-16T02:19:38.370Z,102011.55
2019-05-16T02:20:02.467Z,102006.98
2019-05-16T02:20:28.243Z,102011.91
2019-05-16T02:20:53.620Z,102009.69
2019-05-16T02:21:18.840Z,102011.91
2019-05-16T02:21:43.468Z,102011.55
2019-05-16T02:22:09.015Z,102012.89
2019-05-16T02:22:34.312Z,102008.44
2019-05-16T02:22:59.478Z,102010.19
2019-05-16T02:23:24.770Z,102011.14
2019-05-16T02:23:51.704Z,102010.19
2019-05-16T02:24:18.252Z,102010.26
2019-05-16T02:24:43.716Z,102012.49
2019-05-16T02:25:09.102Z,102004.45
2019-05-16T02:25:33.792Z,102012.49
2019-05-16T02:25:59.086Z,102008.03
2019-05-16T02:26:24.296Z,102004.38
2019-05-16T02:26:52.505Z,102008.03
2019-05-16T02:27:18.069Z,102005.33
2019-05-16T02:27:42.698Z,102005.33
2019-05-16T02:28:07.918Z,102007.15
2019-05-16T02:28:39.779Z,102008.98
2019-05-16T02:29:00.853Z,102003.97
2019-05-16T02:29:26.344Z,102007.62
2019-05-16T02:29:51.533Z,102004.92
2019-05-16T02:30:16.713Z,102006.75
2019-05-16T02:30:42.343Z,102008.98
2019-05-16T02:31:07.589Z,102007.25
2019-05-16T02:31:32.766Z,102000.49
2019-05-16T02:32:01.575Z,102003.20
2019-05-16T02:32:24.382Z,102001.44
2019-05-16T02:32:52.317Z,102004.55
2019-05-16T02:33:16.426Z,101999.61
2019-05-16T02:33:41.625Z,102004.55
2019-05-16T02:34:06.240Z,102002.31
2019-05-16T02:34:31.404Z,102006.37
2019-05-16T02:34:56.603Z,102001.44
2019-05-16T02:35:21.851Z,101998.73
2019-05-16T02:35:47.031Z,101997.86
2019-05-16T02:36:11.662Z,102005.50
2019-05-16T02:36:36.854Z,102000.08
2019-05-16T02:37:18.410Z,102005.50
2019-05-16T02:37:33.468Z,102001.44
2019-05-16T02:37:55.581Z,102001.44
2019-05-16T02:38:21.391Z,101999.20
2019-05-16T02:38:46.803Z,102001.03
2019-05-16T02:39:11.978Z,101996.98
2019-05-16T02:39:36.608Z,101995.22
2019-05-16T02:40:01.964Z,101996.57
2019-05-16T02:40:27.351Z,101996.57
2019-05-16T02:40:55.237Z,101997.92
2019-05-16T02:41:21.582Z,101992.52
2019-05-16T02:41:46.244Z,101993.09
2019-05-16T02:42:12.250Z,101998.80
2019-05-16T02:42:37.594Z,101988.56
2019-05-16T02:43:02.304Z,101995.80
2019-05-16T02:43:31.066Z,101996.57
2019-05-16T02:43:54.577Z,101992.52
2019-05-16T02:44:24.093Z,101996.27
2019-05-16T02:44:46.100Z,101995.80
2019-05-16T02:45:11.441Z,101997.15
2019-05-16T02:45:36.852Z,101997.62
2019-05-16T02:46:02.114Z,101994.92
2019-05-16T02:46:26.728Z,101994.04
2019-05-16T02:46:51.903Z,101996.75
2019-05-16T02:47:17.087Z,101997.22
2019-05-16T02:47:43.027Z,101998.09
2019-05-16T02:48:10.799Z,101999.45
2019-05-16T02:48:35.531Z,101991.81
2019-05-16T02:49:01.065Z,101999.05
2019-05-16T02:49:26.318Z,101994.98
2019-05-16T02:49:50.955Z,101998.57
2019-05-16T02:50:16.917Z,101994.52
2019-05-16T02:50:42.121Z,101997.69
2019-05-16T02:51:10.809Z,101994.14
2019-05-16T02:51:33.689Z,101993.63
2019-05-16T02:52:01.306Z,101992.28
2019-05-16T02:52:25.842Z,101993.63
2019-05-16T02:52:51.881Z,101995.97
2019-05-16T02:53:16.738Z,101993.27
2019-05-16T02:53:41.958Z,101993.27
2019-05-16T02:54:10.733Z,101998.67
2019-05-16T02:54:34.097Z,101996.44
2019-05-16T02:55:00.852Z,101997.32
2019-05-16T02:55:25.596Z,101997.32
2019-05-16T02:55:51.678Z,101994.22
2019-05-16T02:56:17.177Z,101992.86
2019-05-16T02:56:42.095Z,101991.91
2019-05-16T02:57:10.843Z,101989.68
2019-05-16T02:57:34.286Z,101993.73
2019-05-16T02:58:00.737Z,101988.80
2019-05-16T02:58:25.865Z,101992.86
2019-05-16T02:58:52.082Z,101991.51
2019-05-16T02:59:20.370Z,101991.51
2019-05-16T02:59:44.488Z,101991.51
2019-05-16T03:00:12.101Z,101988.80
2019-05-16T03:00:41.913Z,101989.27
2019-05-16T03:01:05.365Z,101990.16
2019-05-16T03:01:31.688Z,101988.33
2019-05-16T03:01:56.666Z,101991.51
2019-05-16T03:02:21.832Z,101991.98
2019-05-16T03:02:47.038Z,101984.34
2019-05-16T03:03:12.339Z,101988.39
2019-05-16T03:03:40.204Z,101989.34
2019-05-16T03:04:03.866Z,101987.05
2019-05-16T03:04:30.595Z,101981.64
2019-05-16T03:04:56.019Z,101986.64
2019-05-16T03:05:21.233Z,101991.58
2019-05-16T03:05:45.846Z,101983.46
2019-05-16T03:06:11.623Z,101980.86
2019-05-16T03:06:36.967Z,101984.81
2019-05-16T03:07:02.269Z,101981.73
2019-05-16T03:07:37.947Z,101982.21
2019-05-16T03:07:53.833Z,101986.64
2019-05-16T03:08:21.068Z,101989.34
2019-05-16T03:08:47.045Z,101983.16
2019-05-16T03:09:11.777Z,101980.86
2019-05-16T03:09:37.161Z,101977.28
2019-05-16T03:10:02.484Z,101983.09
2019-05-16T03:10:30.943Z,101979.88
2019-05-16T03:10:54.480Z,101978.63
2019-05-16T03:11:21.154Z,101976.40
2019-05-16T03:11:46.690Z,101976.40
2019-05-16T03:12:11.899Z,101971.94
2019-05-16T03:12:40.887Z,101977.75
2019-05-16T03:13:05.351Z,101975.99
2019-05-16T03:13:31.625Z,101965.28
2019-05-16T03:13:56.798Z,101976.88
2019-05-16T03:14:21.508Z,101969.23
2019-05-16T03:14:47.348Z,101970.58
2019-05-16T03:15:12.649Z,101974.64
2019-05-16T03:15:40.748Z,101971.94
2019-05-16T03:16:04.547Z,101969.34
2019-05-16T03:16:31.597Z,101970.58
2019-05-16T03:16:57.147Z,101975.11
2019-05-16T03:17:22.336Z,101970.58
2019-05-16T03:17:46.969Z,101964.77
2019-05-16T03:18:12.137Z,101966.13
2019-05-16T03:18:37.297Z,101965.28
2019-05-16T03:19:04.569Z,101963.05
2019-05-16T03:19:31.172Z,101959.36
2019-05-16T03:19:56.791Z,101967.47
2019-05-16T03:20:21.979Z,101964.40
2019-05-16T03:20:47.154Z,101965.75
2019-05-16T03:21:12.627Z,101969.81
2019-05-16T03:21:37.926Z,101963.05
2019-05-16T03:22:03.166Z,101965.28
2019-05-16T03:22:31.251Z,101962.64
2019-05-16T03:22:54.956Z,101960.71
2019-05-16T03:23:21.820Z,101960.34
2019-05-16T03:23:47.205Z,101954.94
2019-05-16T03:24:12.389Z,101958.11
2019-05-16T03:24:37.022Z,101962.64
2019-05-16T03:25:02.181Z,101962.17
2019-05-16T03:25:30.907Z,101964.47
2019-05-16T03:25:55.615Z,101961.29
2019-05-16T03:26:21.041Z,101960.41
2019-05-16T03:26:46.439Z,101962.64
2019-05-16T03:27:11.594Z,101955.87
2019-05-16T03:27:36.771Z,101965.75
2019-05-16T03:28:02.094Z,101966.70
2019-05-16T03:28:30.498Z,101955.00
2019-05-16T03:28:54.523Z,101959.53
2019-05-16T03:29:21.884Z,101959.94
2019-05-16T03:29:46.117Z,101959.94
2019-05-16T03:30:15.740Z,101960.41
2019-05-16T03:30:43.819Z,101957.70
2019-05-16T03:31:06.249Z,101959.53
2019-05-16T03:31:34.027Z,101960.01
2019-05-16T03:32:02.534Z,101960.48
2019-05-16T03:32:24.938Z,101959.13
2019-05-16T03:32:54.693Z,101959.13
2019-05-16T03:33:23.881Z,101960.11
2019-05-16T03:33:56.254Z,101956.93
2019-05-16T03:34:15.943Z,101957.41
2019-05-16T03:34:37.175Z,101956.05
2019-05-16T03:35:05.239Z,101958.76
2019-05-16T03:35:33.439Z,101956.05
2019-05-16T03:35:56.091Z,101948.89
2019-05-16T03:36:25.126Z,101951.59
2019-05-16T03:36:53.711Z,101950.23
2019-05-16T03:37:15.211Z,101948.89
2019-05-16T03:37:54.005Z,101948.41
2019-05-16T03:38:07.409Z,101952.06
2019-05-16T03:38:32.026Z,101948.95
2019-05-16T03:38:57.248Z,101951.19
2019-05-16T03:39:22.452Z,101944.42
2019-05-16T03:39:47.639Z,101949.84
2019-05-16T03:40:26.728Z,101947.61
2019-05-16T03:40:51.891Z,101940.38
2019-05-16T03:41:17.115Z,101941.72
2019-05-16T03:41:42.299Z,101943.08
2019-05-16T03:42:07.459Z,101947.53
2019-05-16T03:42:32.146Z,101937.66
2019-05-16T03:42:57.431Z,101936.31
2019-05-16T03:43:22.578Z,101942.60
2019-05-16T03:43:50.496Z,101942.20
2019-05-16T03:44:14.260Z,101939.97
2019-05-16T03:44:41.100Z,101939.49
2019-05-16T03:45:06.539Z,101939.97
2019-05-16T03:45:32.345Z,101934.02
2019-05-16T03:45:57.165Z,101935.36
2019-05-16T03:46:22.375Z,101938.55
2019-05-16T03:46:47.644Z,101941.72
2019-05-16T03:47:12.802Z,101931.85
2019-05-16T03:47:37.447Z,101939.02
2019-05-16T03:48:03.316Z,101934.56
2019-05-16T03:48:31.432Z,101939.02
2019-05-16T03:48:55.681Z,101940.84
2019-05-16T03:49:21.184Z,101939.02
2019-05-16T03:49:46.572Z,101939.02
2019-05-16T03:50:11.746Z,101938.14
2019-05-16T03:50:36.929Z,101937.27
2019-05-16T03:51:01.558Z,101937.27
2019-05-16T03:51:26.717Z,101940.77
2019-05-16T03:51:51.910Z,101939.49
2019-05-16T03:52:17.088Z,101932.73
2019-05-16T03:52:43.583Z,101937.19
2019-05-16T03:53:11.559Z,101937.19
2019-05-16T03:53:35.691Z,101935.44
2019-05-16T03:54:02.805Z,101933.61
2019-05-16T03:54:27.785Z,101934.56
2019-05-16T03:54:52.391Z,101930.50
2019-05-16T03:55:21.332Z,101928.20
2019-05-16T03:55:46.411Z,101934.08
2019-05-16T03:56:11.675Z,101932.36
2019-05-16T03:56:36.382Z,101938.24
2019-05-16T03:57:01.624Z,101931.85
2019-05-16T03:57:26.800Z,101930.50
2019-05-16T03:57:52.115Z,101933.20
2019-05-16T03:58:22.087Z,101933.20
2019-05-16T03:58:43.671Z,101934.56
2019-05-16T03:59:10.995Z,101933.71
2019-05-16T03:59:35.741Z,101931.48
2019-05-16T04:00:00.997Z,101930.60
2019-05-16T04:00:54.091Z,101930.12
2019-05-16T04:01:21.043Z,101929.73
2019-05-16T04:01:46.463Z,101924.72
2019-05-16T04:02:11.710Z,101928.37
2019-05-16T04:02:36.327Z,101928.81
2019-05-16T04:03:01.523Z,101927.94
2019-05-16T04:03:28.961Z,101929.29
2019-05-16T04:03:53.570Z,101923.98
2019-05-16T04:04:20.817Z,101925.81
2019-05-16T04:04:45.094Z,101929.46
2019-05-16T04:05:11.100Z,101928.58
2019-05-16T04:05:36.745Z,101925.47
2019-05-16T04:06:01.654Z,101929.53
2019-05-16T04:06:26.915Z,101927.70
2019-05-16T04:06:52.077Z,101925.58
2019-05-16T04:07:17.264Z,101925.17
2019-05-16T04:07:42.477Z,101929.64
2019-05-16T04:08:14.830Z,101929.70
2019-05-16T04:08:34.139Z,101922.47
2019-05-16T04:09:01.605Z,101927.00
2019-05-16T04:09:26.192Z,101927.00
2019-05-16T04:09:50.886Z,101922.06
2019-05-16T04:10:16.084Z,101922.94
2019-05-16T04:10:41.449Z,101918.48
2019-05-16T04:11:06.612Z,101919.36
2019-05-16T04:11:32.120Z,101927.88
2019-05-16T04:11:57.637Z,101922.94
2019-05-16T04:12:22.858Z,101923.82
2019-05-16T04:12:48.048Z,101920.64
2019-05-16T04:13:12.754Z,101919.77
2019-05-16T04:13:40.981Z,101923.82
2019-05-16T04:14:05.283Z,101918.82
2019-05-16T04:14:31.096Z,101920.64
2019-05-16T04:14:55.895Z,101921.52
2019-05-16T04:15:21.575Z,101923.28
2019-05-16T04:15:46.804Z,101920.17
2019-05-16T04:16:13.492Z,101917.36
2019-05-16T04:16:41.207Z,101919.59
2019-05-16T04:17:05.432Z,101923.65
2019-05-16T04:17:31.741Z,101918.23
2019-05-16T04:17:57.221Z,101916.82
2019-05-16T04:18:22.622Z,101921.34
2019-05-16T04:18:51.149Z,101916.75
2019-05-16T04:19:14.926Z,101923.00
2019-05-16T04:19:41.590Z,101924.86
2019-05-16T04:20:11.810Z,101918.47
2019-05-16T04:20:36.824Z,101922.05
2019-05-16T04:21:02.815Z,101918.47
2019-05-16T04:21:31.956Z,101914.41
2019-05-16T04:21:54.334Z,101917.56
2019-05-16T04:22:21.484Z,101921.17
2019-05-16T04:22:46.528Z,101918.33
2019-05-16T04:23:11.713Z,101915.63
2019-05-16T04:23:36.445Z,101914.68
2019-05-16T04:24:01.626Z,101913.73
2019-05-16T04:24:26.795Z,101915.48
2019-05-16T04:24:52.394Z,101918.02
2019-05-16T04:25:17.579Z,101920.72
2019-05-16T04:25:42.255Z,101920.14
2019-05-16T04:26:07.428Z,101914.25
2019-05-16T04:26:35.890Z,101915.53
2019-05-16T04:27:00.997Z,101918.17
2019-05-16T04:27:25.894Z,101914.95
2019-05-16T04:27:51.143Z,101914.41
2019-05-16T04:28:16.312Z,101912.48
2019-05-16T04:28:41.670Z,101912.88
2019-05-16T04:29:06.319Z,101915.05
2019-05-16T04:29:31.926Z,101919.88
2019-05-16T04:30:01.192Z,101923.86
2019-05-16T04:30:24.182Z,101919.33
2019-05-16T04:30:50.761Z,101919.22
2019-05-16T04:31:15.700Z,101920.02
2019-05-16T04:31:41.431Z,101915.09
2019-05-16T04:32:07.081Z,101919.04
2019-05-16T04:32:31.791Z,101921.67
2019-05-16T04:32:56.969Z,101921.13
2019-05-16T04:33:22.807Z,101921.50
2019-05-16T04:33:51.404Z,101916.48
2019-05-16T04:34:14.485Z,101913.31
2019-05-16T04:34:42.050Z,101915.54
2019-05-16T04:35:07.307Z,101920.00
2019-05-16T04:35:32.517Z,101917.59
2019-05-16T04:35:57.126Z,101918.47
2019-05-16T04:36:23.371Z,101918.77
2019-05-16T04:36:51.559Z,101922.82
2019-05-16T04:37:21.790Z,101921.77
2019-05-16T04:37:44.843Z,101914.52
2019-05-16T04:38:13.086Z,101922.97
2019-05-16T04:38:45.014Z,101916.58
2019-05-16T04:39:06.087Z,101915.63
2019-05-16T04:39:31.908Z,101921.44
2019-05-16T04:40:00.902Z,101915.44
2019-05-16T04:40:24.594Z,101913.72
2019-05-16T04:40:51.762Z,101919.36
2019-05-16T04:41:16.165Z,101922.43
2019-05-16T04:41:41.341Z,101914.71
2019-05-16T04:42:06.514Z,101921.87
2019-05-16T04:42:31.720Z,101916.87
2019-05-16T04:42:56.349Z,101918.59
2019-05-16T04:43:22.309Z,101923.93
2019-05-16T04:43:50.463Z,101920.75
2019-05-16T04:44:15.014Z,101921.15
2019-05-16T04:44:41.706Z,101921.04
2019-05-16T04:45:11.507Z,101918.26
2019-05-16T04:45:35.064Z,101919.03
2019-05-16T04:46:01.438Z,101918.08
2019-05-16T04:46:26.305Z,101918.00
2019-05-16T04:46:51.529Z,101916.53
2019-05-16T04:47:16.711Z,101919.64
2019-05-16T04:47:41.889Z,101921.40
2019-05-16T04:48:07.057Z,101925.35
2019-05-16T04:48:31.730Z,101919.86
2019-05-16T04:48:56.938Z,101918.51
2019-05-16T04:49:22.158Z,101917.59
2019-05-16T04:49:47.340Z,101917.00
2019-05-16T04:50:13.614Z,101917.00
2019-05-16T04:50:41.770Z,101922.82
2019-05-16T04:51:05.666Z,101919.16
2019-05-16T04:51:30.913Z,101917.33
2019-05-16T04:51:55.558Z,101923.62
2019-05-16T04:52:21.922Z,101914.14
2019-05-16T04:52:47.300Z,101920.80
2019-05-16T04:53:12.461Z,101915.31